Time;durP1;ratioP1;P1;durP2;ratioP2;P2;SDS_P1;SDS_P2;PMS_P1;PMS_P2;Temp;Humidity;BMP_temperature;BMP_pressure;BME280_temperature;BME280_humidity;BME280_pressure;Samples;Min_cycle;Max_cycle;Signal;HPM_P1;HPM_P2
2023/08/19 00:00:16;;;;;;;6.90;4.50;;;26.70;73.20;;;;;;5026571;28;20034;-56
2023/08/19 00:02:42;;;;;;;5.60;4.90;;;26.70;73.20;;;;;;5025647;28;20030;-56
2023/08/19 00:05:08;;;;;;;10.05;5.07;;;26.70;73.20;;;;;;5026560;28;20025;-56
2023/08/19 00:07:33;;;;;;;6.60;4.35;;;26.70;73.30;;;;;;5024303;28;20041;-56
2023/08/19 00:10:01;;;;;;;6.00;4.30;;;26.70;73.30;;;;;;5025215;28;20034;-56
2023/08/19 00:12:27;;;;;;;9.25;4.32;;;26.70;73.40;;;;;;5025136;28;20088;-56
2023/08/19 00:14:55;;;;;;;9.27;4.35;;;26.70;73.60;;;;;;5025268;28;20030;-56
2023/08/19 00:17:21;;;;;;;6.53;4.20;;;26.60;73.60;;;;;;5026175;28;20030;-56
2023/08/19 00:19:47;;;;;;;6.57;3.75;;;26.60;73.70;;;;;;5026223;28;20053;-56
2023/08/19 00:22:12;;;;;;;7.60;3.58;;;26.60;73.80;;;;;;5026411;28;20449;-56
2023/08/19 00:24:38;;;;;;;9.05;4.63;;;26.60;73.80;;;;;;5026195;28;20053;-56
2023/08/19 00:27:03;;;;;;;6.45;4.10;;;26.50;73.80;;;;;;5026167;28;20056;-56
2023/08/19 00:29:29;;;;;;;6.40;4.03;;;26.50;73.90;;;;;;5026246;28;20380;-56
2023/08/19 00:31:55;;;;;;;5.25;3.60;;;26.50;74.00;;;;;;5024832;28;20053;-56
2023/08/19 00:34:21;;;;;;;6.35;3.60;;;26.50;74.20;;;;;;5026108;28;20057;-56
2023/08/19 00:36:46;;;;;;;9.85;3.40;;;26.40;74.10;;;;;;5025849;28;20032;-56
2023/08/19 00:39:12;;;;;;;10.02;4.18;;;26.40;74.20;;;;;;5025861;28;20046;-55
2023/08/19 00:41:38;;;;;;;11.88;4.40;;;26.40;74.30;;;;;;5024911;28;20474;-56
2023/08/19 00:44:03;;;;;;;11.38;4.00;;;26.40;74.40;;;;;;5024409;28;20030;-56
2023/08/19 00:46:29;;;;;;;6.63;4.20;;;26.30;74.40;;;;;;5025852;28;20026;-56
2023/08/19 00:48:56;;;;;;;6.50;3.67;;;26.30;74.50;;;;;;5026078;28;20029;-56
2023/08/19 00:51:22;;;;;;;7.65;4.72;;;26.30;74.50;;;;;;5025574;28;20446;-56
2023/08/19 00:53:47;;;;;;;7.78;4.18;;;26.30;74.60;;;;;;5025777;28;20030;-56
2023/08/19 00:56:13;;;;;;;6.20;4.47;;;26.30;74.70;;;;;;5025952;28;20065;-56
2023/08/19 00:58:38;;;;;;;9.63;4.50;;;26.20;74.80;;;;;;5025364;28;20040;-56
2023/08/19 01:01:04;;;;;;;8.02;4.90;;;26.20;75.00;;;;;;5025862;28;20026;-56
2023/08/19 01:03:29;;;;;;;8.80;4.00;;;26.20;75.10;;;;;;5025630;28;20029;-56
2023/08/19 01:06:27;;;;;;;7.38;4.28;;;26.20;75.90;;;;;;5024000;28;20085;-56
2023/08/19 01:09:28;;;;;;;8.93;4.38;;;26.10;75.20;;;;;;5025586;28;20037;-55
2023/08/19 01:12:03;;;;;;;5.63;3.95;;;26.10;75.40;;;;;;5024896;28;20029;-56
2023/08/19 01:14:41;;;;;;;6.22;4.55;;;26.10;75.60;;;;;;5026732;28;20053;-56
2023/08/19 01:17:09;;;;;;;6.57;4.20;;;26.00;75.60;;;;;;5027075;28;20046;-55
2023/08/19 01:19:36;;;;;;;9.27;4.10;;;26.00;75.70;;;;;;5026296;28;20575;-56
2023/08/19 01:22:05;;;;;;;5.50;3.70;;;26.00;76.50;;;;;;5025418;28;20030;-56
2023/08/19 01:24:40;;;;;;;5.90;4.20;;;26.00;75.90;;;;;;5025507;28;20049;-56
2023/08/19 01:27:06;;;;;;;7.78;3.85;;;26.00;76.00;;;;;;5026096;28;20092;-56
2023/08/19 01:29:32;;;;;;;10.73;4.63;;;26.00;76.10;;;;;;5025669;28;20049;-56
2023/08/19 01:31:58;;;;;;;7.13;4.13;;;25.90;76.20;;;;;;5025714;28;20040;-56
2023/08/19 01:34:25;;;;;;;9.65;5.07;;;25.90;76.30;;;;;;5007857;28;20022;-56
2023/08/19 01:36:53;;;;;;;7.20;4.70;;;25.90;76.30;;;;;;5023967;28;20038;-56
2023/08/19 01:39:19;;;;;;;7.90;4.78;;;25.90;76.30;;;;;;5023825;28;20026;-54
2023/08/19 01:41:45;;;;;;;6.13;4.35;;;25.90;76.40;;;;;;5023927;28;20372;-56
2023/08/19 01:44:10;;;;;;;8.82;4.63;;;25.80;77.00;;;;;;5025060;28;20069;-56
2023/08/19 01:46:36;;;;;;;5.50;4.43;;;25.80;76.30;;;;;;5025061;28;20045;-56
2023/08/19 01:49:01;;;;;;;6.63;4.40;;;25.80;76.40;;;;;;5025010;28;20033;-56
2023/08/19 01:51:30;;;;;;;5.20;4.40;;;25.80;76.40;;;;;;5024243;28;20053;-56
2023/08/19 01:53:56;;;;;;;7.97;4.30;;;25.70;76.40;;;;;;5025215;28;20079;-56
2023/08/19 01:56:21;;;;;;;6.90;4.38;;;25.70;76.40;;;;;;5024857;28;20052;-56
2023/08/19 01:58:47;;;;;;;8.65;4.28;;;25.60;76.40;;;;;;5024536;28;20022;-56
2023/08/19 02:01:12;;;;;;;6.75;4.07;;;25.60;76.50;;;;;;5027173;28;20471;-55
2023/08/19 02:03:38;;;;;;;10.07;4.13;;;25.60;76.50;;;;;;5028251;28;20034;-56
2023/08/19 02:06:04;;;;;;;5.85;3.47;;;25.60;76.60;;;;;;5023547;28;20058;-56
2023/08/19 02:08:29;;;;;;;5.03;3.25;;;25.60;76.70;;;;;;5025397;28;20053;-56
2023/08/19 02:10:55;;;;;;;11.18;4.05;;;25.60;76.80;;;;;;5025226;28;20363;-56
2023/08/19 02:13:20;;;;;;;7.95;3.83;;;25.50;76.80;;;;;;5025052;28;20056;-56
2023/08/19 02:15:46;;;;;;;5.82;3.60;;;25.50;76.90;;;;;;5024884;28;20102;-56
2023/08/19 02:18:11;;;;;;;6.88;3.60;;;25.40;76.90;;;;;;5024895;28;20033;-56
2023/08/19 02:20:37;;;;;;;8.25;4.05;;;25.40;77.10;;;;;;5025634;28;20120;-56
2023/08/19 02:23:02;;;;;;;6.32;3.70;;;25.40;77.20;;;;;;5025299;28;20021;-56
2023/08/19 02:25:28;;;;;;;7.13;4.28;;;25.40;77.40;;;;;;5023678;28;20506;-56
2023/08/19 02:27:53;;;;;;;7.07;4.13;;;25.40;77.50;;;;;;5024775;28;20037;-56
2023/08/19 02:30:19;;;;;;;6.05;3.97;;;25.30;77.50;;;;;;5025567;28;20108;-55
2023/08/19 02:32:45;;;;;;;6.95;4.18;;;25.30;77.70;;;;;;5028720;28;20144;-56
2023/08/19 02:35:10;;;;;;;8.07;3.30;;;25.30;77.80;;;;;;5028489;28;20049;-56
2023/08/19 02:37:36;;;;;;;9.15;4.47;;;25.30;77.90;;;;;;5028313;28;20042;-56
2023/08/19 02:40:03;;;;;;;6.72;3.65;;;25.30;78.00;;;;;;5028494;28;20021;-56
2023/08/19 02:42:29;;;;;;;8.77;4.00;;;25.30;78.00;;;;;;5028428;28;20048;-56
2023/08/19 02:44:54;;;;;;;7.50;4.03;;;25.20;78.00;;;;;;5026911;28;20026;-56
2023/08/19 02:47:20;;;;;;;10.07;3.67;;;25.20;78.00;;;;;;5026853;28;20095;-56
2023/08/19 02:49:45;;;;;;;5.45;3.42;;;25.10;78.00;;;;;;5028172;28;20037;-56
2023/08/19 02:52:11;;;;;;;5.28;3.53;;;25.10;78.20;;;;;;5028235;28;20049;-56
2023/08/19 02:54:36;;;;;;;8.88;3.42;;;25.10;78.20;;;;;;5026756;28;20022;-56
2023/08/19 02:57:02;;;;;;;4.07;3.00;;;25.10;78.90;;;;;;5027769;28;20034;-56
2023/08/19 02:59:28;;;;;;;6.38;3.10;;;25.10;78.30;;;;;;5028138;28;20026;-56
2023/08/19 03:01:53;;;;;;;5.70;3.50;;;25.10;78.40;;;;;;5028069;28;20053;-56
2023/08/19 03:04:19;;;;;;;9.27;3.50;;;25.10;78.50;;;;;;5028103;28;20025;-56
2023/08/19 03:06:45;;;;;;;4.10;2.97;;;25.00;79.20;;;;;;5027723;28;20038;-56
2023/08/19 03:09:10;;;;;;;7.25;3.40;;;25.00;78.70;;;;;;5027775;28;20112;-56
2023/08/19 03:11:36;;;;;;;6.85;3.45;;;25.00;78.80;;;;;;5027807;28;20038;-56
2023/08/19 03:14:01;;;;;;;7.25;3.90;;;24.90;78.90;;;;;;5027390;28;20086;-56
2023/08/19 03:16:27;;;;;;;8.65;4.03;;;24.90;79.00;;;;;;5027653;28;20053;-56
2023/08/19 03:18:53;;;;;;;7.03;4.15;;;24.90;79.30;;;;;;5027608;28;20026;-55
2023/08/19 03:21:18;;;;;;;10.05;4.20;;;24.90;79.30;;;;;;5026341;28;20030;-56
2023/08/19 03:23:44;;;;;;;7.78;3.88;;;24.90;79.40;;;;;;5027646;28;20465;-55
2023/08/19 03:26:09;;;;;;;8.85;4.03;;;24.90;79.40;;;;;;5026118;28;20052;-56
2023/08/19 03:28:35;;;;;;;8.98;4.03;;;24.80;79.60;;;;;;5027513;28;20041;-56
2023/08/19 03:31:07;;;;;;;7.55;3.83;;;24.80;79.60;;;;;;5027685;28;20058;-56
2023/08/19 03:33:33;;;;;;;8.13;3.97;;;24.80;79.60;;;;;;5027201;28;20041;-56
2023/08/19 03:35:59;;;;;;;8.50;3.92;;;24.80;79.80;;;;;;5027419;28;20113;-56
2023/08/19 03:38:25;;;;;;;8.88;3.85;;;24.80;79.80;;;;;;5026075;28;20064;-56
2023/08/19 03:40:51;;;;;;;9.75;3.90;;;24.80;80.60;;;;;;5026706;28;20034;-56
2023/08/19 03:43:16;;;;;;;7.95;4.03;;;24.70;80.10;;;;;;5024671;28;20049;-56
2023/08/19 03:45:42;;;;;;;8.52;4.35;;;24.70;80.10;;;;;;5027393;28;20085;-56
2023/08/19 03:48:08;;;;;;;8.57;4.03;;;24.70;80.20;;;;;;5026999;28;20030;-56
2023/08/19 03:50:33;;;;;;;8.82;4.28;;;24.70;80.20;;;;;;5027275;28;20476;-56
2023/08/19 03:52:59;;;;;;;8.93;4.55;;;24.70;80.30;;;;;;5026894;28;20132;-56
2023/08/19 03:55:24;;;;;;;9.63;4.18;;;24.60;80.30;;;;;;5026937;28;20042;-56
2023/08/19 03:57:51;;;;;;;7.63;4.57;;;24.60;80.30;;;;;;5026912;28;20034;-56
2023/08/19 04:00:16;;;;;;;11.32;4.45;;;24.60;80.30;;;;;;5025402;28;20085;-55
2023/08/19 04:02:42;;;;;;;7.25;4.25;;;24.60;80.40;;;;;;5025532;28;20034;-56
2023/08/19 04:05:09;;;;;;;8.85;4.13;;;24.50;80.60;;;;;;5026895;28;20029;-56
2023/08/19 04:07:35;;;;;;;6.60;4.57;;;24.50;80.90;;;;;;5026418;28;20041;-56
2023/08/19 04:10:00;;;;;;;9.77;4.78;;;24.40;81.10;;;;;;5026886;28;20037;-56
2023/08/19 04:12:26;;;;;;;7.53;4.70;;;24.40;81.30;;;;;;5026691;28;20097;-56
2023/08/19 04:14:52;;;;;;;8.60;5.10;;;24.40;81.50;;;;;;5026480;28;20026;-56
2023/08/19 04:17:18;;;;;;;9.88;5.00;;;24.30;81.30;;;;;;5026614;28;20053;-56
2023/08/19 04:19:44;;;;;;;12.55;4.88;;;24.40;81.30;;;;;;5024998;28;20425;-56
2023/08/19 04:22:14;;;;;;;7.43;4.47;;;24.40;81.30;;;;;;5025081;28;20028;-54
2023/08/19 04:24:39;;;;;;;9.50;4.47;;;24.40;81.50;;;;;;5027753;28;20037;-55
2023/08/19 04:27:05;;;;;;;8.40;4.78;;;24.30;81.70;;;;;;5026081;28;20022;-56
2023/08/19 04:29:32;;;;;;;9.00;4.88;;;24.30;81.80;;;;;;5026532;28;20052;-56
2023/08/19 04:32:02;;;;;;;7.00;3.92;;;24.20;81.90;;;;;;5026255;28;20022;-56
2023/08/19 04:34:28;;;;;;;8.40;4.22;;;24.20;82.10;;;;;;5025936;28;20086;-56
2023/08/19 04:36:53;;;;;;;8.82;4.85;;;24.20;82.20;;;;;;5026096;28;20030;-56
2023/08/19 04:39:20;;;;;;;9.68;4.20;;;24.20;82.00;;;;;;5025941;28;20032;-56
2023/08/19 04:41:46;;;;;;;10.00;4.43;;;24.20;81.90;;;;;;5026082;28;20026;-56
2023/08/19 04:44:11;;;;;;;7.80;3.97;;;24.20;81.90;;;;;;5026016;28;20028;-56
2023/08/19 04:46:37;;;;;;;6.68;3.97;;;24.20;82.00;;;;;;5024599;28;20030;-56
2023/08/19 04:49:03;;;;;;;9.38;4.00;;;24.20;82.00;;;;;;5025947;28;20022;-56
2023/08/19 04:51:28;;;;;;;10.27;3.85;;;24.10;82.00;;;;;;5024720;28;20451;-56
2023/08/19 04:53:54;;;;;;;8.60;4.53;;;24.10;82.10;;;;;;5025272;28;20038;-56
2023/08/19 04:56:19;;;;;;;8.23;4.38;;;24.10;82.10;;;;;;5025908;28;20034;-56
2023/08/19 04:58:45;;;;;;;9.27;4.28;;;24.10;82.00;;;;;;5025539;28;20029;-56
2023/08/19 05:01:11;;;;;;;8.60;4.53;;;24.10;82.10;;;;;;5025465;28;20038;-56
2023/08/19 05:03:36;;;;;;;8.52;4.50;;;24.00;82.10;;;;;;5025602;28;20038;-56
2023/08/19 05:06:02;;;;;;;7.75;4.32;;;24.00;82.10;;;;;;5025588;28;20061;-56
2023/08/19 05:08:29;;;;;;;8.80;4.30;;;24.00;82.20;;;;;;5025637;28;20038;-55
2023/08/19 05:10:55;;;;;;;6.22;4.03;;;24.00;82.30;;;;;;5025697;28;20081;-56
2023/08/19 05:13:20;;;;;;;6.20;3.70;;;24.00;82.50;;;;;;5024066;28;20045;-56
2023/08/19 05:15:46;;;;;;;11.60;3.70;;;24.00;82.40;;;;;;5025268;28;20026;-56
2023/08/19 05:18:11;;;;;;;9.07;4.43;;;24.00;82.30;;;;;;5025259;28;20034;-56
2023/08/19 05:20:37;;;;;;;8.10;3.80;;;23.90;82.30;;;;;;5023930;28;20481;-56
2023/08/19 05:23:03;;;;;;;9.00;3.97;;;23.90;82.30;;;;;;5025279;28;20402;-56
2023/08/19 05:25:29;;;;;;;5.43;3.60;;;23.90;82.30;;;;;;5025379;28;20048;-56
2023/08/19 05:27:56;;;;;;;7.85;3.75;;;23.90;82.30;;;;;;5025192;28;20076;-56
2023/08/19 05:30:22;;;;;;;7.35;4.05;;;23.90;82.40;;;;;;5023832;28;20573;-56
2023/08/19 05:32:48;;;;;;;5.85;3.60;;;23.90;82.60;;;;;;5025248;28;20056;-56
2023/08/19 05:35:13;;;;;;;7.45;3.60;;;23.90;82.60;;;;;;5025052;28;20032;-56
2023/08/19 05:37:39;;;;;;;8.07;4.00;;;23.90;82.60;;;;;;5024895;28;20048;-56
2023/08/19 05:40:05;;;;;;;8.90;4.18;;;23.80;82.70;;;;;;5024895;28;20026;-56
2023/08/19 05:42:31;;;;;;;6.78;3.42;;;23.80;82.70;;;;;;5024946;28;20038;-55
2023/08/19 05:44:56;;;;;;;8.38;3.60;;;23.80;82.80;;;;;;5024931;28;20065;-56
2023/08/19 05:47:22;;;;;;;4.65;3.65;;;23.80;82.90;;;;;;5024846;28;20048;-56
2023/08/19 05:49:47;;;;;;;7.45;3.58;;;23.80;83.00;;;;;;5024905;28;20041;-56
2023/08/19 05:52:13;;;;;;;6.22;3.67;;;23.80;83.10;;;;;;5023482;28;20052;-56
2023/08/19 05:54:39;;;;;;;6.05;3.60;;;23.90;83.00;;;;;;5024767;28;20035;-56
2023/08/19 05:57:05;;;;;;;5.13;3.67;;;23.80;82.80;;;;;;5024883;28;20060;-56
2023/08/19 05:59:30;;;;;;;9.65;3.88;;;23.80;83.00;;;;;;5024787;28;20457;-56
2023/08/19 06:01:56;;;;;;;8.30;3.50;;;23.80;82.90;;;;;;5024681;28;20109;-56
2023/08/19 06:04:21;;;;;;;7.45;3.42;;;23.80;82.90;;;;;;5024660;28;20081;-56
2023/08/19 06:06:47;;;;;;;8.23;3.92;;;23.80;83.00;;;;;;5027978;28;20038;-56
2023/08/19 06:09:13;;;;;;;7.20;3.55;;;23.80;83.10;;;;;;5028710;28;20030;-56
2023/08/19 06:11:49;;;;;;;9.20;3.90;;;23.70;83.20;;;;;;5028621;28;20033;-56
2023/08/19 06:14:15;;;;;;;6.70;4.00;;;23.80;83.40;;;;;;5028724;28;20030;-56
2023/08/19 06:16:41;;;;;;;7.45;3.80;;;23.70;83.40;;;;;;5028709;28;20034;-56
2023/08/19 06:19:07;;;;;;;5.97;3.40;;;23.70;83.50;;;;;;5026871;28;20045;-56
2023/08/19 06:21:32;;;;;;;4.35;3.70;;;23.70;83.50;;;;;;5025653;28;20038;-56
2023/08/19 06:23:58;;;;;;;5.88;3.35;;;23.70;83.40;;;;;;5023941;28;20030;-56
2023/08/19 06:26:25;;;;;;;3.83;2.92;;;23.70;83.30;;;;;;5027213;28;20034;-56
2023/08/19 06:28:50;;;;;;;6.88;4.10;;;23.70;83.20;;;;;;5027450;28;20085;-56
2023/08/19 06:31:16;;;;;;;3.50;3.20;;;23.70;83.20;;;;;;5028322;28;20533;-56
2023/08/19 06:33:42;;;;;;;7.70;3.80;;;23.70;83.20;;;;;;5027279;28;20030;-56
2023/08/19 06:36:08;;;;;;;5.25;3.45;;;23.70;83.30;;;;;;5028090;28;20438;-56
2023/08/19 06:38:34;;;;;;;7.90;3.58;;;23.70;83.40;;;;;;5028389;28;20033;-56
2023/08/19 06:41:09;;;;;;;4.97;3.42;;;23.70;83.60;;;;;;5027225;28;20029;-56
2023/08/19 06:43:36;;;;;;;7.45;3.75;;;23.70;83.60;;;;;;5028173;28;20033;-56
2023/08/19 06:46:02;;;;;;;5.90;3.20;;;23.70;83.60;;;;;;5028310;28;20037;-56
2023/08/19 06:48:27;;;;;;;5.50;3.90;;;23.70;83.60;;;;;;5026820;28;20030;-56
2023/08/19 06:50:53;;;;;;;8.85;3.85;;;23.70;83.50;;;;;;5027854;28;20022;-56
2023/08/19 06:53:20;;;;;;;4.80;3.42;;;23.70;83.50;;;;;;5027980;28;20041;-56
2023/08/19 06:56:02;;;;;;;7.93;3.72;;;23.70;83.50;;;;;;5028134;28;20061;-56
2023/08/19 06:58:28;;;;;;;5.55;3.65;;;23.70;83.40;;;;;;5027903;28;20065;-56
2023/08/19 07:00:59;;;;;;;5.25;3.42;;;23.70;83.40;;;;;;5026723;28;20076;-56
2023/08/19 07:03:30;;;;;;;6.85;3.10;;;23.80;83.50;;;;;;5027991;28;20038;-56
2023/08/19 07:05:55;;;;;;;4.18;3.50;;;23.80;83.40;;;;;;5028056;28;20046;-56
2023/08/19 07:08:21;;;;;;;5.13;3.10;;;23.70;83.30;;;;;;5027775;28;20046;-56
2023/08/19 07:10:46;;;;;;;7.88;3.63;;;23.80;83.30;;;;;;5026286;28;20033;-56
2023/08/19 07:13:13;;;;;;;6.35;3.42;;;23.80;83.30;;;;;;5027819;28;20080;-56
2023/08/19 07:15:38;;;;;;;6.05;3.70;;;23.80;83.30;;;;;;5027966;28;20040;-55
2023/08/19 07:18:04;;;;;;;7.03;3.25;;;23.80;83.30;;;;;;5026598;28;20378;-56
2023/08/19 07:20:30;;;;;;;6.07;3.50;;;23.80;83.40;;;;;;5026398;28;20030;-56
2023/08/19 07:22:55;;;;;;;9.70;3.15;;;23.80;83.50;;;;;;5027594;28;20443;-56
2023/08/19 07:25:21;;;;;;;6.72;3.30;;;23.80;83.50;;;;;;5027516;28;20038;-56
2023/08/19 07:27:46;;;;;;;7.50;3.47;;;23.80;83.50;;;;;;5026335;28;20050;-55
2023/08/19 07:30:13;;;;;;;6.57;3.38;;;23.80;83.60;;;;;;5027361;28;20060;-56
2023/08/19 07:32:38;;;;;;;4.75;2.70;;;23.80;83.50;;;;;;5027481;28;20030;-56
2023/08/19 07:35:05;;;;;;;6.65;3.45;;;23.80;83.30;;;;;;5027499;28;20061;-56
2023/08/19 07:37:31;;;;;;;5.28;3.20;;;23.80;83.20;;;;;;5027242;28;20045;-56
2023/08/19 07:39:57;;;;;;;7.05;3.20;;;23.80;83.10;;;;;;5027417;28;20057;-56
2023/08/19 07:42:23;;;;;;;5.05;3.05;;;23.80;83.00;;;;;;5025886;28;20072;-56
2023/08/19 07:44:48;;;;;;;4.22;3.22;;;23.80;83.00;;;;;;5027050;28;20026;-56
2023/08/19 07:47:14;;;;;;;5.78;3.45;;;23.80;83.00;;;;;;5026775;28;20030;-56
2023/08/19 07:49:39;;;;;;;5.43;3.03;;;23.80;83.10;;;;;;5026797;28;20037;-56
2023/08/19 07:52:05;;;;;;;6.60;3.42;;;23.80;83.20;;;;;;5027042;28;20053;-56
2023/08/19 07:54:31;;;;;;;5.60;3.28;;;23.80;83.20;;;;;;5026737;28;20474;-56
2023/08/19 07:56:58;;;;;;;9.27;3.72;;;23.80;83.20;;;;;;5026726;28;20033;-56
2023/08/19 07:59:24;;;;;;;5.20;2.83;;;23.90;83.30;;;;;;5026681;28;20018;-56
2023/08/19 08:01:50;;;;;;;4.57;2.90;;;23.90;83.20;;;;;;5026580;28;20446;-56
2023/08/19 08:04:16;;;;;;;5.95;3.20;;;23.90;83.10;;;;;;5026506;28;20022;-56
2023/08/19 08:06:42;;;;;;;7.03;3.60;;;23.90;84.10;;;;;;5026416;28;20042;-56
2023/08/19 08:09:07;;;;;;;9.93;3.65;;;24.00;84.50;;;;;;5025164;28;20118;-56
2023/08/19 08:11:33;;;;;;;10.77;3.70;;;23.90;84.70;;;;;;5024251;28;20041;-56
2023/08/19 08:13:58;;;;;;;12.20;4.40;;;23.90;84.80;;;;;;5023823;28;20435;-56
2023/08/19 08:16:24;;;;;;;19.70;5.00;;;24.00;84.80;;;;;;5026605;28;20375;-56
2023/08/19 08:18:49;;;;;;;17.20;4.63;;;24.00;85.00;;;;;;5025850;28;20351;-56
2023/08/19 08:21:15;;;;;;;36.67;6.13;;;24.00;84.90;;;;;;5024563;28;20022;-56
2023/08/19 08:23:41;;;;;;;37.10;6.25;;;24.00;85.10;;;;;;5017487;28;20122;-56
2023/08/19 08:26:06;;;;;;;26.10;5.95;;;24.00;85.30;;;;;;5025252;28;20022;-56
2023/08/19 08:28:32;;;;;;;51.17;8.13;;;24.10;85.20;;;;;;5025238;28;20054;-56
2023/08/19 08:30:58;;;;;;;43.45;7.00;;;24.10;85.10;;;;;;5021905;28;20022;-56
2023/08/19 08:33:25;;;;;;;45.40;7.72;;;24.10;85.30;;;;;;5006398;28;20034;-56
2023/08/19 08:35:51;;;;;;;54.30;8.70;;;24.20;85.20;;;;;;5007985;28;20050;-56
2023/08/19 08:38:16;;;;;;;69.95;11.65;;;24.20;85.10;;;;;;5024246;28;20060;-56
2023/08/19 08:40:42;;;;;;;73.88;11.90;;;24.20;84.80;;;;;;5025975;28;20053;-56
2023/08/19 08:43:07;;;;;;;56.10;11.25;;;24.20;85.00;;;;;;5024357;28;20022;-56
2023/08/19 08:45:33;;;;;;;92.75;12.20;;;24.20;84.60;;;;;;5025811;28;20414;-56
2023/08/19 08:48:00;;;;;;;72.97;11.02;;;24.30;84.60;;;;;;5008099;28;20428;-56
2023/08/19 08:50:25;;;;;;;120.63;15.45;;;24.30;84.20;;;;;;5008081;28;20056;-55
2023/08/19 08:52:51;;;;;;;107.65;14.30;;;24.40;84.30;;;;;;5024201;28;20041;-55
2023/08/19 08:55:17;;;;;;;111.55;15.00;;;24.40;84.20;;;;;;5024945;28;20088;-56
2023/08/19 08:57:42;;;;;;;99.45;13.57;;;24.40;84.10;;;;;;5025204;28;20033;-55
2023/08/19 09:00:11;;;;;;;93.07;13.48;;;24.50;84.30;;;;;;5015584;28;20030;-56
2023/08/19 09:02:38;;;;;;;118.22;15.10;;;24.50;84.20;;;;;;5022473;28;20037;-56
2023/08/19 09:05:05;;;;;;;85.10;13.38;;;24.60;84.20;;;;;;5025724;28;20061;-55
2023/08/19 09:07:31;;;;;;;114.47;14.70;;;24.60;84.00;;;;;;5019302;28;20439;-56
2023/08/19 09:09:57;;;;;;;88.55;12.77;;;24.70;83.70;;;;;;5014978;28;20034;-56
2023/08/19 09:12:23;;;;;;;88.32;13.05;;;24.70;83.50;;;;;;5021375;28;20034;-56
2023/08/19 09:14:53;;;;;;;115.50;15.00;;;24.70;83.30;;;;;;5021499;28;20025;-56
2023/08/19 09:17:19;;;;;;;176.23;21.30;;;24.80;83.50;;;;;;5038948;28;20097;-56
2023/08/19 09:19:45;;;;;;;120.20;15.10;;;24.80;83.40;;;;;;5024887;28;20053;-56
2023/08/19 09:22:16;;;;;;;89.82;15.27;;;24.80;83.30;;;;;;5022528;28;20038;-56
2023/08/19 09:24:42;;;;;;;100.82;14.55;;;24.80;83.40;;;;;;5024759;28;20045;-56
2023/08/19 09:27:08;;;;;;;116.22;16.13;;;24.90;83.20;;;;;;5024675;28;20033;-56
2023/08/19 09:29:34;;;;;;;148.18;17.33;;;24.90;83.20;;;;;;5024093;28;20073;-56
2023/08/19 09:31:59;;;;;;;119.80;16.52;;;25.00;83.20;;;;;;5022390;28;20056;-56
2023/08/19 09:34:25;;;;;;;110.90;14.32;;;25.10;83.00;;;;;;5024307;28;20033;-56
2023/08/19 09:36:57;;;;;;;129.93;17.98;;;25.10;82.70;;;;;;5023620;28;20090;-55
2023/08/19 09:39:25;;;;;;;138.10;17.17;;;25.10;82.80;;;;;;5021578;28;20038;-56
2023/08/19 09:42:00;;;;;;;133.50;18.02;;;25.20;82.60;;;;;;5015073;28;20029;-56
2023/08/19 09:44:29;;;;;;;112.22;15.43;;;25.30;82.40;;;;;;5023148;28;20037;-56
2023/08/19 09:46:56;;;;;;;138.63;17.40;;;25.30;82.60;;;;;;5020555;28;20048;-56
2023/08/19 09:49:22;;;;;;;120.63;15.40;;;25.30;82.20;;;;;;5019659;28;20092;-56
2023/08/19 09:51:54;;;;;;;120.78;15.95;;;25.40;82.10;;;;;;5024145;28;20034;-56
2023/08/19 09:54:20;;;;;;;97.63;14.32;;;25.40;82.00;;;;;;5025074;28;20089;-56
2023/08/19 09:56:56;;;;;;;91.80;13.55;;;25.50;81.60;;;;;;5022394;28;20449;-56
2023/08/19 09:59:25;;;;;;;90.75;13.90;;;25.50;81.40;;;;;;5022671;28;20037;-56
2023/08/19 10:01:52;;;;;;;165.52;18.63;;;25.60;81.00;;;;;;5018947;28;20114;-56
2023/08/19 10:04:21;;;;;;;99.40;13.63;;;25.70;80.90;;;;;;5016300;28;20094;-56
2023/08/19 10:06:50;;;;;;;97.70;13.32;;;25.80;80.30;;;;;;5024345;28;20037;-55
2023/08/19 10:09:17;;;;;;;81.53;12.98;;;25.90;80.00;;;;;;5026767;28;20030;-56
2023/08/19 10:11:43;;;;;;;74.90;12.80;;;25.90;79.60;;;;;;5023717;28;20127;-56
2023/08/19 10:14:08;;;;;;;76.60;12.02;;;26.00;79.50;;;;;;5022387;28;20038;-56
2023/08/19 10:16:42;;;;;;;99.05;11.88;;;26.00;79.20;;;;;;5021624;28;20041;-56
2023/08/19 10:19:08;;;;;;;84.30;13.00;;;26.00;79.10;;;;;;5022907;28;20033;-55
2023/08/19 10:21:33;;;;;;;122.07;14.05;;;26.10;78.90;;;;;;5022335;28;20450;-55
2023/08/19 10:23:59;;;;;;;74.65;11.52;;;26.10;78.90;;;;;;5022201;28;20078;-56
2023/08/19 10:26:24;;;;;;;105.10;14.18;;;26.20;78.90;;;;;;5019593;28;20030;-55
2023/08/19 10:29:07;;;;;;;101.97;14.63;;;26.20;78.90;;;;;;5021307;28;20026;-56
2023/08/19 10:31:33;;;;;;;82.22;12.75;;;26.30;78.60;;;;;;5017826;28;20049;-56
2023/08/19 10:33:59;;;;;;;85.13;9.93;;;26.30;78.10;;;;;;5022375;28;20022;-56
2023/08/19 10:36:33;;;;;;;79.93;10.30;;;26.40;77.70;;;;;;5015158;28;20101;-56
2023/08/19 10:39:00;;;;;;;80.30;11.52;;;26.50;77.30;;;;;;5018912;28;20038;-56
2023/08/19 10:41:29;;;;;;;77.47;10.95;;;26.60;76.80;;;;;;5022272;28;20037;-56
2023/08/19 10:43:55;;;;;;;60.08;9.98;;;26.70;76.60;;;;;;5013927;28;20022;-56
2023/08/19 10:46:48;;;;;;;66.68;9.60;;;26.70;76.30;;;;;;5017383;28;20506;-56
2023/08/19 10:49:21;;;;;;;72.28;9.30;;;26.80;75.90;;;;;;5011313;28;20049;-56
2023/08/19 10:51:48;;;;;;;66.63;8.40;;;26.90;75.30;;;;;;5018153;28;20057;-56
2023/08/19 10:54:15;;;;;;;73.70;10.23;;;27.00;74.80;;;;;;5036452;28;20034;-55
2023/08/19 10:56:52;;;;;;;53.85;9.38;;;27.00;74.10;;;;;;5027342;28;20038;-55
2023/08/19 10:59:19;;;;;;;64.32;11.15;;;27.10;73.80;;;;;;5019156;28;20026;-56
2023/08/19 11:01:45;;;;;;;73.53;11.25;;;27.20;73.20;;;;;;5026072;28;20026;-56
2023/08/19 11:04:11;;;;;;;95.07;12.15;;;27.20;72.90;;;;;;5021505;28;20049;-56
2023/08/19 11:06:38;;;;;;;69.75;10.90;;;27.30;72.50;;;;;;5007588;28;20112;-56
2023/08/19 11:09:03;;;;;;;63.10;8.95;;;27.40;72.50;;;;;;5017766;28;20022;-55
2023/08/19 11:11:31;;;;;;;62.85;9.10;;;27.40;71.90;;;;;;5019149;28;20478;-56
2023/08/19 11:13:56;;;;;;;51.58;8.00;;;27.50;71.40;;;;;;5015200;28;20026;-56
2023/08/19 11:16:28;;;;;;;65.30;9.73;;;27.60;71.00;;;;;;5020983;28;20045;-56
2023/08/19 11:18:54;;;;;;;57.45;8.70;;;27.70;70.90;;;;;;5020457;28;20025;-55
2023/08/19 11:21:19;;;;;;;45.67;7.75;;;27.70;70.30;;;;;;5022357;28;20052;-56
2023/08/19 11:23:45;;;;;;;44.38;7.80;;;27.80;70.00;;;;;;5024098;28;20022;-56
2023/08/19 11:26:11;;;;;;;39.22;7.05;;;27.90;69.70;;;;;;5025337;28;20040;-55
2023/08/19 11:28:37;;;;;;;52.33;8.10;;;28.00;69.60;;;;;;5023691;28;20455;-56
2023/08/19 11:31:02;;;;;;;42.45;7.50;;;28.00;69.30;;;;;;5019901;28;20025;-56
2023/08/19 11:33:31;;;;;;;36.53;6.97;;;28.20;69.20;;;;;;5017108;28;20030;-56
2023/08/19 11:35:56;;;;;;;50.42;7.10;;;28.30;68.90;;;;;;5036392;28;20033;-56
2023/08/19 11:38:22;;;;;;;47.28;7.43;;;28.30;68.70;;;;;;5015881;28;20034;-55
2023/08/19 11:40:50;;;;;;;67.30;10.93;;;28.40;68.60;;;;;;5016799;28;20101;-55
2023/08/19 11:43:20;;;;;;;57.25;9.65;;;28.50;68.60;;;;;;5021021;28;20034;-56
2023/08/19 11:45:46;;;;;;;52.05;7.65;;;28.60;68.30;;;;;;5016221;28;20041;-55
2023/08/19 11:48:14;;;;;;;73.28;10.90;;;28.60;68.30;;;;;;5021163;28;20037;-55
2023/08/19 11:50:47;;;;;;;56.65;9.85;;;28.70;68.60;;;;;;5022769;28;20108;-56
2023/08/19 11:53:23;;;;;;;133.40;16.98;;;28.80;68.50;;;;;;5017928;28;20101;-55
2023/08/19 11:55:57;;;;;;;96.65;12.90;;;28.90;68.70;;;;;;5018111;28;20031;-56
2023/08/19 11:58:46;;;;;;;84.22;10.95;;;29.00;68.90;;;;;;5016684;28;20037;-56
2023/08/19 12:01:11;;;;;;;69.75;9.20;;;29.10;68.80;;;;;;5016079;28;20062;-55
2023/08/19 12:03:44;;;;;;;94.30;12.52;;;29.20;68.00;;;;;;5020533;28;20046;-56
2023/08/19 12:06:10;;;;;;;82.22;10.77;;;29.30;67.70;;;;;;5020267;28;20026;-56
2023/08/19 12:08:38;;;;;;;65.93;10.05;;;29.40;67.40;;;;;;5014761;28;20466;-55
2023/08/19 12:11:04;;;;;;;88.18;11.75;;;29.50;67.30;;;;;;5018451;28;20033;-56
2023/08/19 12:13:29;;;;;;;73.53;10.35;;;29.60;67.40;;;;;;5022631;28;20022;-56
2023/08/19 12:15:55;;;;;;;96.28;12.20;;;29.60;67.00;;;;;;5023034;28;20451;-55
2023/08/19 12:18:21;;;;;;;98.00;13.60;;;29.70;66.90;;;;;;5009876;28;20106;-56
2023/08/19 12:20:47;;;;;;;109.38;13.00;;;29.70;67.00;;;;;;5019933;28;20398;-56
2023/08/19 12:23:13;;;;;;;111.90;14.02;;;29.80;66.40;;;;;;5018953;28;20035;-56
2023/08/19 12:25:51;;;;;;;91.60;12.65;;;29.80;66.40;;;;;;5019691;28;20436;-56
2023/08/19 12:28:17;;;;;;;108.75;13.80;;;29.90;66.10;;;;;;5020546;28;20064;-56
2023/08/19 12:30:42;;;;;;;68.35;10.73;;;30.00;65.50;;;;;;5023303;28;20026;-55
2023/08/19 12:33:08;;;;;;;72.38;9.88;;;30.00;65.40;;;;;;5021473;28;20034;-56
2023/08/19 12:35:36;;;;;;;73.82;10.07;;;30.20;65.30;;;;;;5017693;28;20034;-56
2023/08/19 12:38:05;;;;;;;61.47;9.23;;;30.20;64.50;;;;;;5021607;28;20502;-56